createdAt,value
2018-12-27T00:00:09.896Z,2.93
2018-12-27T00:02:37.408Z,3.73
2018-12-27T00:05:05.021Z,3.63
2018-12-27T00:07:32.355Z,3.70
2018-12-27T00:09:59.878Z,3.50
2018-12-27T00:12:27.124Z,3.97
2018-12-27T00:14:54.368Z,2.10
2018-12-27T00:17:21.741Z,3.73
2018-12-27T00:19:49.051Z,2.63
2018-12-27T00:22:16.379Z,3.97
2018-12-27T00:24:43.616Z,2.80
2018-12-27T00:27:10.935Z,3.67
2018-12-27T00:29:38.312Z,2.67
2018-12-27T00:32:05.415Z,2.43
2018-12-27T00:34:32.547Z,4.17
2018-12-27T00:36:59.899Z,4.00
2018-12-27T00:39:27.143Z,2.90
2018-12-27T00:41:54.160Z,3.23
2018-12-27T00:44:21.303Z,3.10
2018-12-27T00:46:48.460Z,4.10
2018-12-27T00:49:35.181Z,4.97
2018-12-27T00:52:02.527Z,6.30
2018-12-27T00:54:29.560Z,4.30
2018-12-27T00:56:56.575Z,5.03
2018-12-27T00:59:23.715Z,5.00
2018-12-27T01:01:50.846Z,5.07
2018-12-27T01:04:17.976Z,4.30
2018-12-27T01:06:45.009Z,3.77
2018-12-27T01:09:12.292Z,5.27
2018-12-27T01:11:39.407Z,4.17
2018-12-27T01:14:06.565Z,6.20
2018-12-27T01:16:33.992Z,6.23
2018-12-27T01:19:01.100Z,5.33
2018-12-27T01:21:28.155Z,5.90
2018-12-27T01:23:55.271Z,5.30
2018-12-27T01:26:22.397Z,5.70
2018-12-27T01:28:49.666Z,7.00
2018-12-27T01:31:16.796Z,6.47
2018-12-27T01:33:44.038Z,7.30
2018-12-27T01:36:11.147Z,6.33
2018-12-27T01:38:38.272Z,5.03
2018-12-27T01:41:05.655Z,5.50
2018-12-27T01:43:32.921Z,4.07
2018-12-27T01:46:00.111Z,7.20
2018-12-27T01:48:27.452Z,7.50
2018-12-27T01:50:54.563Z,5.60
2018-12-27T01:53:21.615Z,4.33
2018-12-27T01:55:48.732Z,6.03
2018-12-27T01:58:15.776Z,7.47
2018-12-27T02:00:42.874Z,7.80
2018-12-27T02:03:09.931Z,6.33
2018-12-27T02:05:37.031Z,8.37
2018-12-27T02:08:04.072Z,5.80
2018-12-27T02:10:31.216Z,7.23
2018-12-27T02:12:58.336Z,8.73
2018-12-27T02:15:25.620Z,8.47
2018-12-27T02:17:52.640Z,6.73
2018-12-27T02:20:21.447Z,7.30
2018-12-27T02:22:48.629Z,6.63
2018-12-27T02:25:15.686Z,8.20
2018-12-27T02:27:42.796Z,7.70
2018-12-27T02:30:09.857Z,7.73
2018-12-27T02:32:37.222Z,7.33
2018-12-27T02:35:04.517Z,6.77
2018-12-27T02:37:31.776Z,7.47
2018-12-27T02:39:58.997Z,5.03
2018-12-27T02:42:26.545Z,7.80
2018-12-27T02:44:53.870Z,7.50
2018-12-27T02:47:21.060Z,8.50
2018-12-27T02:49:48.180Z,3.97
2018-12-27T02:52:15.344Z,7.60
2018-12-27T02:54:42.456Z,5.23
2018-12-27T02:57:09.594Z,6.27
2018-12-27T02:59:36.737Z,7.10
2018-12-27T03:02:04.003Z,7.47
2018-12-27T03:04:31.154Z,5.17
2018-12-27T03:06:58.460Z,5.10
2018-12-27T03:09:25.743Z,7.73
2018-12-27T03:11:52.864Z,5.10
2018-12-27T03:14:20.007Z,6.57
2018-12-27T03:16:47.180Z,6.60
2018-12-27T03:19:14.187Z,7.33
2018-12-27T03:21:41.200Z,7.97
2018-12-27T03:24:08.260Z,6.27
2018-12-27T03:26:35.288Z,7.33
2018-12-27T03:29:02.800Z,7.77
2018-12-27T03:31:29.917Z,5.87
2018-12-27T03:33:57.262Z,7.87
2018-12-27T03:36:24.375Z,8.53
2018-12-27T03:38:51.460Z,8.60
2018-12-27T03:41:18.671Z,5.80
2018-12-27T03:43:45.671Z,8.20
2018-12-27T03:46:12.839Z,8.50
2018-12-27T03:48:39.970Z,7.07
2018-12-27T03:51:07.216Z,6.67
2018-12-27T03:53:34.230Z,7.57
2018-12-27T03:56:01.405Z,6.37
2018-12-27T03:58:28.522Z,7.63
2018-12-27T04:00:55.764Z,4.87
2018-12-27T04:03:22.987Z,7.23
2018-12-27T04:05:50.264Z,4.43
2018-12-27T04:08:17.375Z,4.00
2018-12-27T04:10:44.519Z,6.77
2018-12-27T04:13:31.159Z,5.73
2018-12-27T04:15:58.439Z,7.13
2018-12-27T04:18:25.783Z,6.07
2018-12-27T04:20:52.986Z,6.10
2018-12-27T04:23:20.548Z,5.53
2018-12-27T04:25:48.099Z,6.17
2018-12-27T04:28:15.628Z,5.43
2018-12-27T04:30:43.380Z,6.57
2018-12-27T04:33:15.565Z,6.00
2018-12-27T04:35:43.299Z,4.83
2018-12-27T04:38:10.665Z,6.27
2018-12-27T04:40:37.943Z,6.57
2018-12-27T04:43:05.414Z,5.67
2018-12-27T04:45:32.536Z,3.60
2018-12-27T04:47:59.760Z,4.60
2018-12-27T04:50:27.129Z,5.60
2018-12-27T04:52:54.601Z,4.07
2018-12-27T04:55:21.916Z,5.50
2018-12-27T04:57:49.236Z,7.00
2018-12-27T05:00:16.588Z,5.70
2018-12-27T05:02:43.828Z,5.73
2018-12-27T05:05:11.184Z,5.97
2018-12-27T05:07:38.493Z,3.80
2018-12-27T05:10:05.851Z,4.20
2018-12-27T05:12:33.798Z,5.40
2018-12-27T05:15:01.032Z,5.27
2018-12-27T05:17:28.292Z,6.53
2018-12-27T05:19:55.537Z,5.43
2018-12-27T05:22:22.796Z,6.03
2018-12-27T05:24:50.131Z,5.40
2018-12-27T05:27:17.244Z,4.63
2018-12-27T05:29:44.396Z,5.90
2018-12-27T05:32:11.727Z,5.80
2018-12-27T05:34:39.012Z,5.20
2018-12-27T05:37:06.331Z,5.93
2018-12-27T05:39:33.809Z,5.53
2018-12-27T05:42:01.127Z,4.77
2018-12-27T05:44:28.471Z,5.67
2018-12-27T05:46:55.696Z,5.00
2018-12-27T05:49:23.324Z,6.13
2018-12-27T05:51:50.588Z,6.37
2018-12-27T05:54:17.794Z,6.40
2018-12-27T05:56:45.448Z,5.97
2018-12-27T05:59:12.822Z,4.37
2018-12-27T06:01:40.146Z,4.67
2018-12-27T06:04:07.479Z,5.93
2018-12-27T06:06:34.720Z,5.23
2018-12-27T06:09:02.104Z,5.67
2018-12-27T06:11:29.324Z,6.13
2018-12-27T06:13:56.647Z,7.13
2018-12-27T06:16:24.104Z,7.27
2018-12-27T06:18:51.352Z,5.70
2018-12-27T06:21:18.721Z,6.47
2018-12-27T06:23:45.945Z,5.43
2018-12-27T06:26:13.304Z,5.33
2018-12-27T06:28:40.656Z,5.83
2018-12-27T06:31:08.077Z,7.47
2018-12-27T06:33:35.527Z,7.13
2018-12-27T06:36:02.820Z,4.10
2018-12-27T06:38:30.132Z,6.57
2018-12-27T06:40:57.487Z,7.87
2018-12-27T06:43:24.812Z,7.00
2018-12-27T06:45:52.065Z,8.30
2018-12-27T06:48:19.502Z,7.23
2018-12-27T06:50:46.873Z,8.53
2018-12-27T06:53:14.089Z,8.17
2018-12-27T06:55:41.548Z,8.57
2018-12-27T06:58:08.800Z,8.57
2018-12-27T07:00:36.160Z,7.60
2018-12-27T07:03:03.467Z,7.47
2018-12-27T07:05:30.911Z,7.50
2018-12-27T07:07:58.118Z,7.83
2018-12-27T07:10:25.375Z,7.97
2018-12-27T07:12:52.632Z,7.80
2018-12-27T07:15:19.880Z,7.37
2018-12-27T07:17:47.207Z,11.57
2018-12-27T07:20:14.737Z,8.10
2018-12-27T07:22:42.051Z,8.73
2018-12-27T07:25:09.419Z,8.63
2018-12-27T07:27:36.800Z,5.53
2018-12-27T07:30:04.940Z,7.50
2018-12-27T07:32:32.359Z,8.73
2018-12-27T07:34:59.721Z,9.40
2018-12-27T07:37:27.052Z,5.50
2018-12-27T07:39:54.460Z,8.77
2018-12-27T07:42:21.807Z,8.77
2018-12-27T07:44:48.865Z,9.20
2018-12-27T07:47:16.211Z,8.43
2018-12-27T07:49:43.484Z,9.07
2018-12-27T07:52:10.752Z,9.20
2018-12-27T07:54:37.968Z,7.53
2018-12-27T07:57:05.516Z,6.33
2018-12-27T07:59:32.827Z,7.70
2018-12-27T08:02:00.031Z,8.63
2018-12-27T08:04:27.403Z,6.93
2018-12-27T08:06:54.732Z,7.63
2018-12-27T08:09:22.085Z,6.87
2018-12-27T08:11:49.516Z,7.63
2018-12-27T08:14:16.802Z,8.17
2018-12-27T08:16:44.124Z,8.13
2018-12-27T08:19:11.488Z,7.83
2018-12-27T08:21:38.695Z,7.40
2018-12-27T08:24:05.911Z,7.27
2018-12-27T08:26:33.416Z,7.40
2018-12-27T08:29:00.743Z,6.60
2018-12-27T08:31:28.165Z,7.40
2018-12-27T08:33:55.642Z,7.63
2018-12-27T08:36:22.956Z,7.90
2018-12-27T08:38:50.381Z,7.90
2018-12-27T08:41:17.955Z,7.60
2018-12-27T08:43:45.270Z,5.80
2018-12-27T08:46:12.519Z,6.73
2018-12-27T08:48:39.773Z,6.17
2018-12-27T08:51:07.114Z,8.30
2018-12-27T08:53:34.461Z,6.90
2018-12-27T08:56:01.809Z,8.67
2018-12-27T08:58:29.027Z,8.83
2018-12-27T09:00:56.489Z,9.27
2018-12-27T09:03:23.945Z,8.27
2018-12-27T09:05:51.268Z,8.10
2018-12-27T09:08:18.511Z,8.03
2018-12-27T09:10:45.967Z,6.77
2018-12-27T09:13:13.434Z,7.77
2018-12-27T09:15:40.656Z,7.97
2018-12-27T09:18:08.011Z,7.77
2018-12-27T09:20:35.373Z,6.20
2018-12-27T09:23:02.688Z,8.27
2018-12-27T09:25:29.944Z,7.73
2018-12-27T09:27:57.373Z,4.77
2018-12-27T09:30:24.747Z,8.17
2018-12-27T09:32:52.072Z,6.00
2018-12-27T09:35:26.125Z,7.97
2018-12-27T09:37:48.964Z,7.03
2018-12-27T09:40:16.487Z,9.00
2018-12-27T09:42:43.843Z,7.47
2018-12-27T09:45:11.407Z,7.03
2018-12-27T09:47:38.731Z,6.97
2018-12-27T09:50:06.043Z,7.37
2018-12-27T09:52:33.412Z,6.80
2018-12-27T09:55:00.649Z,8.10
2018-12-27T09:57:27.837Z,7.33
2018-12-27T09:59:55.112Z,7.50
2018-12-27T10:02:22.734Z,6.60
2018-12-27T10:04:49.980Z,7.00
2018-12-27T10:07:17.339Z,6.60
2018-12-27T10:09:44.870Z,4.80
2018-12-27T10:12:12.320Z,6.37
2018-12-27T10:14:39.765Z,5.10
2018-12-27T10:17:07.103Z,6.83
2018-12-27T10:19:34.586Z,7.03
2018-12-27T10:22:02.027Z,6.90
2018-12-27T10:24:29.355Z,6.60
2018-12-27T10:26:56.610Z,6.63
2018-12-27T10:29:23.862Z,6.47
2018-12-27T10:31:51.224Z,6.00
2018-12-27T10:34:18.584Z,5.93
2018-12-27T10:36:46.005Z,5.70
2018-12-27T10:39:13.359Z,5.60
2018-12-27T10:41:40.504Z,5.53
2018-12-27T10:44:07.823Z,3.43
2018-12-27T10:46:35.088Z,5.70
2018-12-27T10:49:02.444Z,5.63
2018-12-27T10:51:29.781Z,5.70
2018-12-27T10:53:57.117Z,5.83
2018-12-27T10:56:24.493Z,5.97
2018-12-27T10:58:51.816Z,6.03
2018-12-27T11:01:19.250Z,5.67
2018-12-27T11:03:46.724Z,6.10
2018-12-27T11:06:13.982Z,4.87
2018-12-27T11:08:41.330Z,5.33
2018-12-27T11:11:08.754Z,5.60
2018-12-27T11:13:36.213Z,4.23
2018-12-27T11:16:03.441Z,5.10
2018-12-27T11:18:30.806Z,4.40
2018-12-27T11:20:58.083Z,3.70
2018-12-27T11:23:25.422Z,5.07
2018-12-27T11:25:53.063Z,4.47
2018-12-27T11:28:20.396Z,3.67
2018-12-27T11:30:47.668Z,4.40
2018-12-27T11:33:14.976Z,3.30
2018-12-27T11:35:42.208Z,4.40
2018-12-27T11:38:09.567Z,4.43
2018-12-27T11:40:36.939Z,3.97
2018-12-27T11:43:04.463Z,3.93
2018-12-27T11:45:31.775Z,4.40
2018-12-27T11:47:59.136Z,3.93
2018-12-27T11:50:26.488Z,4.10
2018-12-27T11:52:53.812Z,3.23
2018-12-27T11:55:21.072Z,3.47
2018-12-27T11:57:48.388Z,2.40
2018-12-27T12:00:15.756Z,3.67
2018-12-27T12:02:43.068Z,4.00
2018-12-27T12:05:10.410Z,4.07
2018-12-27T12:07:37.859Z,3.07
2018-12-27T12:10:05.948Z,3.07
2018-12-27T12:12:33.591Z,2.87
2018-12-27T12:15:00.924Z,2.73
2018-12-27T12:17:28.040Z,2.87
2018-12-27T12:19:55.393Z,2.57
2018-12-27T12:22:22.742Z,2.70
2018-12-27T12:25:09.606Z,3.30
2018-12-27T12:27:36.953Z,3.97
2018-12-27T12:30:04.645Z,3.20
2018-12-27T12:32:32.008Z,2.73
2018-12-27T12:34:59.317Z,2.63
2018-12-27T12:37:26.919Z,3.03
2018-12-27T12:39:54.201Z,2.57
2018-12-27T12:42:32.977Z,1.70
2018-12-27T12:44:50.755Z,3.03
2018-12-27T12:47:18.022Z,3.10
2018-12-27T12:49:45.343Z,2.23
2018-12-27T12:52:12.677Z,1.97
2018-12-27T12:54:40.035Z,3.20
2018-12-27T12:57:07.393Z,1.60
2018-12-27T12:59:34.924Z,2.70
2018-12-27T13:02:02.299Z,3.10
2018-12-27T13:04:29.415Z,3.67
2018-12-27T13:06:56.794Z,3.20
2018-12-27T13:09:24.117Z,3.37
2018-12-27T13:11:51.539Z,2.67
2018-12-27T13:14:19.112Z,3.10
2018-12-27T13:16:46.316Z,2.53
2018-12-27T13:19:13.684Z,3.60
2018-12-27T13:21:40.980Z,3.53
2018-12-27T13:24:08.301Z,2.87
2018-12-27T13:26:35.654Z,2.53
2018-12-27T13:29:03.093Z,2.80
2018-12-27T13:31:30.414Z,3.60
2018-12-27T13:33:57.819Z,2.90
2018-12-27T13:36:25.716Z,3.33
2018-12-27T13:38:53.128Z,4.17
2018-12-27T13:41:20.596Z,3.87
2018-12-27T13:43:47.983Z,3.63
2018-12-27T13:46:15.308Z,3.53
2018-12-27T13:48:42.627Z,3.60
2018-12-27T13:51:10.094Z,4.10
2018-12-27T13:53:37.431Z,3.77
2018-12-27T13:56:04.710Z,3.73
2018-12-27T13:58:32.021Z,3.67
2018-12-27T14:00:59.485Z,3.40
2018-12-27T14:03:26.795Z,3.20
2018-12-27T14:05:54.128Z,3.50
2018-12-27T14:08:21.392Z,3.10
2018-12-27T14:10:48.714Z,2.87
2018-12-27T14:13:17.498Z,3.37
2018-12-27T14:15:44.802Z,3.10
2018-12-27T14:18:12.043Z,3.17
2018-12-27T14:20:39.619Z,3.50
2018-12-27T14:23:06.939Z,2.93
2018-12-27T14:25:34.323Z,3.80
2018-12-27T14:28:01.680Z,3.23
2018-12-27T14:30:29.004Z,3.45
2018-12-27T14:32:56.174Z,3.07
2018-12-27T14:35:23.505Z,3.60
2018-12-27T14:37:50.938Z,2.70
2018-12-27T14:40:18.152Z,3.47
2018-12-27T14:42:45.547Z,2.97
2018-12-27T14:45:12.879Z,2.70
2018-12-27T14:47:40.127Z,1.90
2018-12-27T14:50:07.472Z,1.87
2018-12-27T14:52:34.963Z,2.40
2018-12-27T14:55:02.192Z,1.80
2018-12-27T14:57:29.508Z,2.20
2018-12-27T14:59:56.858Z,1.93
2018-12-27T15:02:24.121Z,2.10
2018-12-27T15:04:51.608Z,2.27
2018-12-27T15:07:18.957Z,2.20
2018-12-27T15:09:46.280Z,1.43
2018-12-27T15:12:13.854Z,1.90
2018-12-27T15:14:41.269Z,2.60
2018-12-27T15:17:08.395Z,1.87
2018-12-27T15:19:35.786Z,2.13
2018-12-27T15:22:03.120Z,2.60
2018-12-27T15:24:30.615Z,2.17
2018-12-27T15:26:57.842Z,2.37
2018-12-27T15:29:25.283Z,2.20
2018-12-27T15:31:52.693Z,2.03
2018-12-27T15:34:19.915Z,1.47
2018-12-27T15:36:47.045Z,2.20
2018-12-27T15:39:16.175Z,1.37
2018-12-27T15:41:43.436Z,2.60
2018-12-27T15:44:10.827Z,2.30
2018-12-27T15:46:38.074Z,2.57
2018-12-27T15:49:05.282Z,1.73
2018-12-27T15:51:32.430Z,1.60
2018-12-27T15:53:59.667Z,2.17
2018-12-27T15:56:26.875Z,2.50
2018-12-27T15:58:54.245Z,2.00
2018-12-27T16:01:21.573Z,1.30
2018-12-27T16:03:48.911Z,1.97
2018-12-27T16:06:16.383Z,1.80
2018-12-27T16:08:43.703Z,2.00
2018-12-27T16:11:10.949Z,2.43
2018-12-27T16:13:38.279Z,1.90
2018-12-27T16:16:06.872Z,1.87
2018-12-27T16:18:34.468Z,1.00
2018-12-27T16:21:02.016Z,1.63
2018-12-27T16:23:29.444Z,1.57
2018-12-27T16:25:56.707Z,1.50
2018-12-27T16:28:24.157Z,1.23
2018-12-27T16:30:51.471Z,1.77
2018-12-27T16:33:18.915Z,1.13
2018-12-27T16:35:46.243Z,1.27
2018-12-27T16:38:13.804Z,1.77
2018-12-27T16:40:41.304Z,1.70
2018-12-27T16:43:08.567Z,1.30
2018-12-27T16:45:35.873Z,0.73
2018-12-27T16:48:03.244Z,1.60
2018-12-27T16:50:30.559Z,1.07
2018-12-27T16:52:57.877Z,0.90
2018-12-27T16:55:25.170Z,1.40
2018-12-27T16:57:52.601Z,1.40
2018-12-27T17:00:20.032Z,1.33
2018-12-27T17:02:47.385Z,1.67
2018-12-27T17:05:14.724Z,1.03
2018-12-27T17:07:42.202Z,1.60
2018-12-27T17:10:09.690Z,1.17
2018-12-27T17:12:37.097Z,1.37
2018-12-27T17:15:04.611Z,1.80
2018-12-27T17:17:31.964Z,1.13
2018-12-27T17:19:59.364Z,1.40
2018-12-27T17:22:26.681Z,1.33
2018-12-27T17:24:54.026Z,1.60
2018-12-27T17:27:21.805Z,0.90
2018-12-27T17:29:49.168Z,1.50
2018-12-27T17:32:16.425Z,1.47
2018-12-27T17:34:43.664Z,1.70
2018-12-27T17:37:11.033Z,1.60
2018-12-27T17:39:38.380Z,1.60
2018-12-27T17:42:05.635Z,1.30
2018-12-27T17:44:32.868Z,1.57
2018-12-27T17:47:00.233Z,1.40
2018-12-27T17:49:27.572Z,0.90
2018-12-27T17:51:55.074Z,1.70
2018-12-27T17:54:22.393Z,1.17
2018-12-27T17:56:49.716Z,1.30
2018-12-27T17:59:17.100Z,1.10
2018-12-27T18:01:44.414Z,2.03
2018-12-27T18:04:11.640Z,1.50
2018-12-27T18:06:38.908Z,1.50
2018-12-27T18:09:06.723Z,0.97
2018-12-27T18:11:34.039Z,0.93
2018-12-27T18:14:01.385Z,1.33
2018-12-27T18:16:28.914Z,1.63
2018-12-27T18:18:56.135Z,0.97
2018-12-27T18:21:23.472Z,0.97
2018-12-27T18:23:50.728Z,1.57
2018-12-27T18:26:18.065Z,1.37
2018-12-27T18:28:45.501Z,1.10
2018-12-27T18:31:13.133Z,1.07
2018-12-27T18:33:40.460Z,1.37
2018-12-27T18:36:07.815Z,1.00
2018-12-27T18:38:35.182Z,1.70
2018-12-27T18:41:02.569Z,1.63
2018-12-27T18:43:29.987Z,0.93
2018-12-27T18:45:57.316Z,1.60
2018-12-27T18:48:24.550Z,1.50
2018-12-27T18:50:51.987Z,0.90
2018-12-27T18:53:19.350Z,1.70
2018-12-27T18:55:46.780Z,1.50
2018-12-27T18:58:14.144Z,1.77
2018-12-27T19:00:41.455Z,1.60
2018-12-27T19:03:10.216Z,0.90
2018-12-27T19:05:37.617Z,1.90
2018-12-27T19:08:04.933Z,1.27
2018-12-27T19:10:32.246Z,1.17
2018-12-27T19:13:04.848Z,1.27
2018-12-27T19:15:35.643Z,1.80
2018-12-27T19:18:17.783Z,1.10
2018-12-27T19:20:49.771Z,1.67
2018-12-27T19:23:18.440Z,1.33
2018-12-27T19:25:45.811Z,1.80
2018-12-27T19:28:13.233Z,1.60
2018-12-27T19:30:40.574Z,1.73
2018-12-27T19:33:07.873Z,1.10
2018-12-27T19:35:35.200Z,1.30
2018-12-27T19:38:02.626Z,1.07
2018-12-27T19:40:30.094Z,1.80
2018-12-27T19:42:57.335Z,1.47
2018-12-27T19:45:24.676Z,1.97
2018-12-27T19:47:52.028Z,1.93
2018-12-27T19:50:19.343Z,1.53
2018-12-27T19:52:46.653Z,1.97
2018-12-27T19:55:13.995Z,1.97
2018-12-27T19:57:41.424Z,1.17
2018-12-27T20:00:09.097Z,0.97
2018-12-27T20:02:36.441Z,1.40
2018-12-27T20:05:04.062Z,2.00
2018-12-27T20:07:31.647Z,1.50
2018-12-27T20:09:59.025Z,1.57
2018-12-27T20:12:26.315Z,1.57
2018-12-27T20:14:53.635Z,1.50
2018-12-27T20:17:20.868Z,1.73
2018-12-27T20:19:48.224Z,1.00
2018-12-27T20:22:15.544Z,1.60
2018-12-27T20:24:43.010Z,2.23
2018-12-27T20:27:10.525Z,1.90
2018-12-27T20:29:37.743Z,0.90
2018-12-27T20:32:05.148Z,1.77
2018-12-27T20:34:32.351Z,1.40
2018-12-27T20:36:59.612Z,1.40
2018-12-27T20:39:26.949Z,1.73
2018-12-27T20:41:54.398Z,1.67
2018-12-27T20:44:21.619Z,2.43
2018-12-27T20:46:48.947Z,1.83
2018-12-27T20:49:16.411Z,1.27
2018-12-27T20:51:43.710Z,1.73
2018-12-27T20:54:11.164Z,2.07
2018-12-27T20:56:38.496Z,4.43
2018-12-27T20:59:05.947Z,2.20
2018-12-27T21:01:33.168Z,2.20
2018-12-27T21:04:00.511Z,1.83
2018-12-27T21:06:27.861Z,1.77
2018-12-27T21:08:55.092Z,1.47
2018-12-27T21:11:22.460Z,1.27
2018-12-27T21:13:49.791Z,1.90
2018-12-27T21:16:17.150Z,1.67
2018-12-27T21:18:44.469Z,1.87
2018-12-27T21:21:11.887Z,1.47
2018-12-27T21:23:39.152Z,2.00
2018-12-27T21:26:06.420Z,2.10
2018-12-27T21:28:33.643Z,1.93
2018-12-27T21:31:01.092Z,2.10
2018-12-27T21:33:28.341Z,1.93
2018-12-27T21:35:55.899Z,2.17
2018-12-27T21:38:23.369Z,2.17
2018-12-27T21:40:50.740Z,1.80
2018-12-27T21:43:18.090Z,1.37
2018-12-27T21:45:45.556Z,1.90
2018-12-27T21:48:12.779Z,2.00
2018-12-27T21:50:40.135Z,1.90
2018-12-27T21:53:07.356Z,2.10
2018-12-27T21:55:34.603Z,2.10
2018-12-27T21:58:01.837Z,2.20
2018-12-27T22:00:29.192Z,2.13
2018-12-27T22:02:56.532Z,1.40
2018-12-27T22:05:23.965Z,1.97
2018-12-27T22:07:51.332Z,2.40
2018-12-27T22:10:18.651Z,2.40
2018-12-27T22:12:46.019Z,2.10
2018-12-27T22:15:13.555Z,1.93
2018-12-27T22:17:40.895Z,2.67
2018-12-27T22:20:08.227Z,2.60
2018-12-27T22:22:35.505Z,2.53
2018-12-27T22:25:03.072Z,2.23
2018-12-27T22:27:30.387Z,2.47
2018-12-27T22:29:57.868Z,2.90
2018-12-27T22:32:26.324Z,2.10
2018-12-27T22:34:53.447Z,2.87
2018-12-27T22:37:20.799Z,2.40
2018-12-27T22:39:48.280Z,2.60
2018-12-27T22:42:15.641Z,2.97
2018-12-27T22:44:42.979Z,2.80
2018-12-27T22:47:10.352Z,2.97
2018-12-27T22:49:37.603Z,2.40
2018-12-27T22:52:06.730Z,2.87
2018-12-27T22:54:33.964Z,3.17
2018-12-27T22:57:01.171Z,3.27
2018-12-27T22:59:28.529Z,2.80
2018-12-27T23:01:55.837Z,2.97
2018-12-27T23:04:23.223Z,2.03
2018-12-27T23:06:50.548Z,3.20
2018-12-27T23:09:17.866Z,3.40
2018-12-27T23:11:45.130Z,3.10
2018-12-27T23:14:12.652Z,1.83
2018-12-27T23:16:40.004Z,3.07
2018-12-27T23:19:07.463Z,3.00
2018-12-27T23:21:34.767Z,2.97
2018-12-27T23:24:02.133Z,2.73
2018-12-27T23:26:29.393Z,3.33
2018-12-27T23:28:56.737Z,3.33
2018-12-27T23:31:24.105Z,3.03
2018-12-27T23:33:51.416Z,3.17
2018-12-27T23:36:18.807Z,3.10
2018-12-27T23:38:50.305Z,2.70
2018-12-27T23:41:15.111Z,3.17
2018-12-27T23:43:42.485Z,3.10
2018-12-27T23:46:09.737Z,2.87
2018-12-27T23:48:37.192Z,2.90
2018-12-27T23:51:04.535Z,3.20
2018-12-27T23:53:31.795Z,3.07
2018-12-27T23:55:59.016Z,3.43
2018-12-27T23:58:26.359Z,2.77
